KHOB

Lea County Regional Airport

Hobbs, New Mexico, USA
METAR KHOB 172050Z 01006G12KT 10SM SKC 17/M02 A3013
Observed Flight Rules
Feb-17 @ 20:50 UTC (45 minutes ago) Visual Flight Rules
Wind Visibility Clouds
10° at 6 knots
 Gusting to 12 knots
10 miles
  • Clear skies
Temperatures Readings
Current 17°C / 63°F
Dewpoint -2°C / 28°F
Humidity 27%
Altimeter 30.13" Hg
Pressure 1020 hPa
Elevation 1115
METAR KHOB 172050Z 01006G12KT 10SM SKC 17/M02 A3013
Observed Flight Rules
Feb-17 @ 20:50 UTC
(45 minutes ago)
VFR
Wind Visibility
10° at 6 knots
 Gusting to 12 knots
10 miles
Clouds
  • Clear skies
Temperature Dewpoint
17°C / 63°F -2°C / 28°F
Humidity Altimeter Pressure
27% 30.13" Hg 1020 hPa